Time;durP1;ratioP1;P1;durP2;ratioP2;P2;SDS_P1;SDS_P2;PMS_P1;PMS_P2;Temp;Humidity;BMP_temperature;BMP_pressure;BME280_temperature;BME280_humidity;BME280_pressure;Samples;Min_cycle;Max_cycle;Signal;HPM_P1;HPM_P2
2022/06/01 00:01:53;;;;;;;3.65;2.30;;;15.80;49.10;;;16.18;43.20;97397.63;5005894;28;20520;-46
2022/06/01 00:04:21;;;;;;;2.83;2.53;;;15.80;49.00;;;16.17;43.13;97403.19;5006997;28;20064;-42
2022/06/01 00:06:51;;;;;;;3.65;2.45;;;15.80;48.90;;;16.17;42.78;97397.81;5005413;28;20068;-41
2022/06/01 00:09:19;;;;;;;2.63;2.33;;;15.80;48.70;;;16.16;42.96;97396.19;5006313;28;20053;-41
2022/06/01 00:11:46;;;;;;;2.55;2.13;;;15.80;48.60;;;16.13;42.90;97392.06;5006230;28;20255;-45
2022/06/01 00:14:14;;;;;;;6.82;2.58;;;15.80;48.70;;;16.06;43.13;97392.03;5006800;28;20058;-43
2022/06/01 00:16:42;;;;;;;2.88;2.60;;;15.80;48.90;;;16.05;43.20;97389.53;5006899;28;20244;-45
2022/06/01 00:19:12;;;;;;;3.70;2.50;;;15.70;49.10;;;16.02;43.22;97392.63;5005884;28;20049;-44
2022/06/01 00:24:26;;;;;;;3.67;2.50;;;15.60;49.40;;;15.98;43.29;97394.06;5009630;28;20064;-44
2022/06/01 00:26:54;;;;;;;3.20;2.72;;;15.60;49.40;;;15.94;43.24;97393.66;5010189;28;20054;-42
2022/06/01 00:29:22;;;;;;;3.70;2.30;;;15.60;49.50;;;15.93;43.43;97387.44;5009678;28;20058;-46
2022/06/01 00:31:49;;;;;;;3.88;2.20;;;15.60;49.50;;;15.91;43.44;97388.66;5008873;28;20069;-43
2022/06/01 00:34:17;;;;;;;3.38;2.60;;;15.50;49.40;;;15.86;43.56;97394.66;5010435;28;20260;-42
2022/06/01 00:36:45;;;;;;;4.72;2.28;;;15.50;49.60;;;15.84;43.35;97398.53;5009444;28;20042;-42
2022/06/01 00:39:13;;;;;;;4.80;2.55;;;15.50;49.30;;;15.81;43.44;97397.09;5007149;28;20057;-44
2022/06/01 00:41:41;;;;;;;2.80;2.50;;;15.50;49.50;;;15.81;43.50;97407.84;5010964;28;20461;-44
2022/06/01 00:44:09;;;;;;;2.53;2.33;;;15.50;49.40;;;15.78;43.49;97405.56;5009849;28;20049;-46
2022/06/01 00:46:37;;;;;;;2.78;2.40;;;15.50;49.50;;;15.75;43.64;97404.09;5009171;28;20060;-43
2022/06/01 00:49:17;;;;;;;2.95;2.25;;;15.40;49.50;;;15.76;43.54;97404.94;5007432;28;20370;-46
2022/06/01 00:51:48;;;;;;;4.53;2.67;;;15.50;49.70;;;15.77;43.74;97401.22;5008182;28;20356;-46
2022/06/01 00:54:16;;;;;;;3.15;2.55;;;15.50;49.30;;;15.79;43.27;97403.72;5008425;28;20065;-44
2022/06/01 00:56:53;;;;;;;5.03;2.20;;;15.50;49.10;;;15.83;43.36;97403.09;5011078;28;20061;-44
2022/06/01 00:59:28;;;;;;;2.78;2.30;;;15.60;50.00;;;15.85;43.29;97400.22;5008256;28;20449;-43
2022/06/01 01:01:56;;;;;;;3.63;2.40;;;15.50;49.10;;;15.81;43.31;97402.47;5008357;28;20050;-42
2022/06/01 01:04:26;;;;;;;3.22;2.72;;;15.50;49.00;;;15.81;43.23;97393.59;5008383;28;20045;-42
2022/06/01 01:06:55;;;;;;;3.25;2.42;;;15.50;48.90;;;15.80;43.10;97387.41;5008622;28;20058;-42
2022/06/01 01:09:22;;;;;;;3.08;2.50;;;15.50;48.60;;;15.79;43.26;97387.59;5008123;28;20049;-41
2022/06/01 01:11:58;;;;;;;2.42;1.95;;;15.50;48.70;;;15.79;43.01;97391.09;5009289;28;20050;-41
2022/06/01 01:14:30;;;;;;;2.95;2.53;;;15.50;48.70;;;15.78;43.17;97394.84;5006941;28;20242;-45
2022/06/01 01:16:59;;;;;;;5.20;2.67;;;15.50;48.90;;;15.75;43.24;97387.16;5008603;28;20049;-45
2022/06/01 01:19:34;;;;;;;3.25;2.55;;;15.40;48.80;;;15.75;43.25;97388.00;5008520;28;20079;-44
2022/06/01 01:22:14;;;;;;;10.75;3.25;;;15.50;49.00;;;15.75;43.40;97387.16;5008427;28;20237;-43
2022/06/01 01:25:20;;;;;;;2.50;2.05;;;15.40;48.80;;;15.74;43.24;97391.72;5009095;28;20054;-42
2022/06/01 01:27:53;;;;;;;3.65;2.20;;;15.50;48.80;;;15.75;43.03;97388.00;5009301;28;20379;-42
2022/06/01 01:30:36;;;;;;;4.78;2.35;;;15.50;48.60;;;15.77;42.88;97392.34;5008027;28;20145;-42
2022/06/01 01:33:25;;;;;;;3.55;2.63;;;15.50;48.50;;;15.77;42.80;97392.34;5009616;28;20053;-43
2022/06/01 01:36:01;;;;;;;4.45;2.42;;;15.50;48.30;;;15.78;42.78;97391.31;5007992;28;20056;-43
2022/06/01 01:38:41;;;;;;;3.75;2.50;;;15.50;48.20;;;15.78;42.81;97385.94;5007314;28;20042;-43
2022/06/01 01:41:36;;;;;;;4.63;2.58;;;15.50;48.20;;;15.76;42.87;97391.53;5008250;28;20050;-44
2022/06/01 01:44:36;;;;;;;3.47;1.83;;;15.50;47.90;;;15.79;42.49;97384.91;5007940;28;20050;-45
2022/06/01 01:47:04;;;;;;;3.53;2.25;;;15.50;47.80;;;15.80;42.44;97386.56;5008146;28;20049;-45
2022/06/01 01:49:36;;;;;;;2.75;2.20;;;15.50;47.70;;;15.77;42.39;97389.66;5008933;28;20056;-46
2022/06/01 01:52:13;;;;;;;3.25;2.25;;;15.50;48.30;;;15.75;42.46;97384.47;5007840;28;20275;-46
2022/06/01 01:54:55;;;;;;;3.65;2.28;;;15.50;47.60;;;15.75;42.36;97384.47;5008784;28;20058;-42
2022/06/01 01:58:02;;;;;;;3.03;2.22;;;15.50;47.20;;;15.74;42.39;97394.41;5007175;28;20052;-44
2022/06/01 02:00:35;;;;;;;4.43;2.42;;;15.50;47.30;;;15.73;42.32;97389.22;5008059;28;20042;-42
2022/06/01 02:03:28;;;;;;;2.63;2.03;;;15.40;47.20;;;15.73;42.23;97397.28;5007270;28;20114;-43
2022/06/01 02:06:33;;;;;;;2.60;2.07;;;15.50;47.10;;;15.73;42.15;97400.78;5008569;28;20076;-45
2022/06/01 02:09:07;;;;;;;;;;;15.50;46.80;;;15.71;42.11;97396.63;5022888;28;20054;-43
2022/06/01 02:14:45;;;;;;;4.43;2.17;;;15.50;47.20;;;15.74;42.26;97389.03;5008754;28;20062;-42
2022/06/01 02:17:25;;;;;;;3.05;1.92;;;15.50;47.30;;;15.74;42.37;97385.50;5007285;28;20042;-42
2022/06/01 02:20:13;;;;;;;3.40;2.50;;;15.50;47.40;;;15.72;42.44;97382.16;5005980;28;20054;-43
2022/06/01 02:22:42;;;;;;;4.38;3.13;;;15.50;47.70;;;15.68;42.72;97381.75;5007699;28;20049;-43
2022/06/01 02:25:12;;;;;;;3.80;2.10;;;15.40;48.00;;;15.63;42.79;97380.69;5006655;28;20058;-42
2022/06/01 02:27:42;;;;;;;3.17;2.15;;;15.30;48.50;;;15.57;43.02;97382.31;5023133;28;20518;-42
2022/06/01 02:30:22;;;;;;;4.00;2.42;;;15.20;48.90;;;15.51;42.99;97383.13;5006039;28;20061;-44
2022/06/01 02:32:52;;;;;;;2.90;2.60;;;15.20;49.10;;;15.48;43.06;97388.88;5006381;28;20057;-45
2022/06/01 02:35:36;;;;;;;3.88;2.20;;;15.10;49.00;;;15.44;43.66;97382.25;5006383;28;20369;-42
2022/06/01 02:38:10;;;;;;;7.28;2.30;;;15.00;49.60;;;15.37;43.80;97379.53;5007771;28;20042;-42
2022/06/01 02:40:39;;;;;;;2.95;2.22;;;15.00;50.20;;;15.33;43.82;97378.25;5007521;28;20359;-44
2022/06/01 02:43:07;;;;;;;3.50;2.53;;;14.90;50.20;;;15.29;44.20;97383.19;5007100;28;20045;-41
2022/06/01 02:45:35;;;;;;;3.45;2.58;;;14.90;50.50;;;15.26;44.41;97386.28;5007407;28;20052;-42
2022/06/01 02:48:04;;;;;;;4.45;2.75;;;14.80;50.90;;;15.21;44.37;97380.66;5006586;28;20251;-46
2022/06/01 02:50:34;;;;;;;3.88;2.88;;;14.80;50.80;;;15.19;44.16;97385.41;5006346;28;20053;-42
2022/06/01 02:53:04;;;;;;;3.97;2.88;;;14.80;50.70;;;15.15;44.30;97390.31;5008609;28;20049;-42
2022/06/01 02:55:33;;;;;;;3.22;2.63;;;14.70;50.80;;;15.08;44.46;97386.78;5021768;28;20068;-42
2022/06/01 02:58:02;;;;;;;3.55;2.67;;;14.60;51.20;;;15.01;45.23;97385.09;5007377;28;20048;-42
2022/06/01 03:00:40;;;;;;;2.88;2.50;;;14.60;52.60;;;14.90;45.46;97397.16;5006940;28;20057;-43
2022/06/01 03:03:10;;;;;;;4.28;3.05;;;14.40;53.30;;;14.76;45.67;97391.69;5007120;28;20053;-43
2022/06/01 03:05:41;;;;;;;3.35;2.35;;;14.30;53.20;;;14.68;45.86;97388.34;5005980;28;20364;-46
2022/06/01 03:08:09;;;;;;;3.10;2.80;;;14.20;53.60;;;14.66;46.10;97385.03;5006977;28;20329;-41
2022/06/01 03:10:38;;;;;;;3.47;2.60;;;14.20;53.50;;;14.68;46.02;97391.03;5007542;28;20333;-42
2022/06/01 03:13:20;;;;;;;4.60;2.78;;;14.30;53.10;;;14.70;46.13;97386.31;5007444;28;20262;-44
2022/06/01 03:15:49;;;;;;;2.85;2.50;;;14.30;53.30;;;14.68;46.28;97385.66;5007492;28;20050;-42
2022/06/01 03:18:18;;;;;;;3.35;2.75;;;14.30;53.50;;;14.63;46.35;97380.06;5008058;28;20054;-43
2022/06/01 03:20:45;;;;;;;5.78;3.38;;;14.20;53.60;;;14.59;46.51;97384.97;5005953;28;20056;-44
2022/06/01 03:23:14;;;;;;;4.22;3.83;;;14.20;53.90;;;14.59;46.18;97384.13;5005720;28;20049;-43
2022/06/01 03:25:42;;;;;;;4.32;3.00;;;14.10;53.60;;;14.60;46.38;97383.09;5007538;28;20068;-42
2022/06/01 03:28:10;;;;;;;3.65;3.08;;;14.20;53.60;;;14.57;46.38;97387.00;5006651;28;20068;-44
2022/06/01 03:30:38;;;;;;;3.92;3.00;;;14.10;53.80;;;14.57;46.64;97385.16;5006800;28;20347;-44
2022/06/01 03:33:06;;;;;;;4.15;2.78;;;14.20;53.70;;;14.59;46.53;97392.19;5006957;28;20263;-45
2022/06/01 03:35:34;;;;;;;4.40;2.60;;;14.20;53.70;;;14.57;46.54;97387.00;5006769;28;20316;-43
2022/06/01 03:38:02;;;;;;;3.15;2.40;;;14.20;53.60;;;14.56;46.58;97388.00;5007022;28;20060;-41
2022/06/01 03:40:32;;;;;;;3.22;2.92;;;14.20;53.70;;;14.52;46.85;97381.34;5006816;28;20054;-45
2022/06/01 03:43:01;;;;;;;3.40;2.65;;;14.10;54.90;;;14.39;47.26;97387.44;5006509;28;20046;-45
2022/06/01 03:48:16;;;;;;;3.20;2.60;;;13.80;55.40;;;14.21;47.74;97390.56;5006409;28;20356;-42
2022/06/01 03:50:44;;;;;;;3.60;2.70;;;13.70;57.20;;;14.12;48.28;97386.34;5005186;28;20394;-41
2022/06/01 03:53:13;;;;;;;4.07;3.13;;;13.60;56.60;;;14.11;48.29;97390.88;5006940;28;20068;-46
2022/06/01 03:55:42;;;;;;;2.88;2.58;;;13.70;56.50;;;14.15;48.25;97392.16;5005930;28;20444;-43
2022/06/01 03:58:18;;;;;;;3.78;2.95;;;13.70;56.50;;;14.18;48.34;97389.06;5007921;28;20042;-42
2022/06/01 04:00:47;;;;;;;3.45;2.60;;;13.80;56.60;;;14.23;47.98;97390.34;5010150;28;20053;-43
2022/06/01 04:03:17;;;;;;;2.90;2.60;;;13.90;55.70;;;14.29;47.79;97394.97;5009473;28;20252;-42
2022/06/01 04:05:45;;;;;;;3.22;2.75;;;14.00;55.30;;;14.34;47.81;97396.03;5009564;28;20056;-41
2022/06/01 04:08:13;;;;;;;3.92;2.70;;;14.00;55.20;;;14.33;48.05;97394.38;5011517;28;20060;-42
2022/06/01 04:10:43;;;;;;;4.30;2.65;;;14.00;55.30;;;14.32;48.08;97394.56;5011010;28;20053;-44
2022/06/01 04:13:13;;;;;;;3.60;3.28;;;13.90;55.70;;;14.29;48.28;97397.66;5010664;28;20049;-42
2022/06/01 04:15:42;;;;;;;3.20;2.80;;;13.90;55.80;;;14.26;48.26;97396.16;5009830;28;20053;-42
2022/06/01 04:18:10;;;;;;;3.42;2.60;;;13.90;55.80;;;14.27;48.31;97396.97;5011009;28;20454;-42
2022/06/01 04:20:39;;;;;;;5.07;3.83;;;13.90;55.90;;;14.29;48.38;97397.66;5010044;28;20060;-44
2022/06/01 04:23:07;;;;;;;4.78;3.97;;;13.90;55.90;;;14.30;48.32;97401.97;5010885;28;20056;-42
2022/06/01 04:25:35;;;;;;;5.10;3.92;;;14.00;55.90;;;14.30;48.05;97397.44;5009847;28;20045;-42
2022/06/01 04:28:04;;;;;;;4.80;3.60;;;14.00;55.50;;;14.33;48.33;97404.28;5010292;28;20352;-44
2022/06/01 04:30:32;;;;;;;3.42;2.70;;;14.00;55.70;;;14.33;48.22;97393.56;5009722;28;20064;-44
2022/06/01 04:33:02;;;;;;;3.97;2.80;;;14.00;55.90;;;14.33;48.29;97397.06;5009740;28;20067;-44
2022/06/01 04:35:30;;;;;;;4.25;3.30;;;14.00;56.00;;;14.36;48.16;97398.53;5008243;28;20064;-42
2022/06/01 04:38:12;;;;;;;5.25;3.22;;;14.00;55.60;;;14.38;48.31;97397.34;5009972;28;20075;-42
2022/06/01 04:40:44;;;;;;;5.32;3.00;;;14.10;55.60;;;14.42;48.45;97404.97;5009606;28;20045;-44
2022/06/01 04:43:18;;;;;;;4.85;3.60;;;14.20;55.90;;;14.38;48.76;97401.84;5008621;28;20356;-45
2022/06/01 04:45:54;;;;;;;6.07;3.88;;;14.10;56.80;;;14.30;49.40;97407.31;5011275;28;20064;-42
2022/06/01 04:48:23;;;;;;;3.92;3.22;;;13.90;57.80;;;14.25;49.50;97404.38;5010867;28;20053;-42
2022/06/01 04:50:53;;;;;;;4.22;3.25;;;13.80;57.70;;;14.24;49.55;97408.91;5008634;28;20050;-41
2022/06/01 04:53:21;;;;;;;4.45;4.05;;;13.90;57.90;;;14.22;49.88;97404.78;5007097;28;20049;-41
2022/06/01 04:55:50;;;;;;;4.43;3.08;;;13.80;58.10;;;14.21;49.95;97409.31;5010044;28;20152;-42
2022/06/01 04:58:18;;;;;;;4.80;3.20;;;13.90;58.30;;;14.25;50.10;97409.72;5009734;28;20340;-42
2022/06/01 05:00:46;;;;;;;4.28;2.90;;;14.00;58.20;;;14.32;49.82;97408.78;5007928;28;20050;-43
2022/06/01 05:03:15;;;;;;;4.18;2.78;;;14.10;57.80;;;14.37;49.80;97403.69;5009419;28;20046;-43
2022/06/01 05:05:43;;;;;;;3.33;2.70;;;14.10;57.30;;;14.43;49.36;97402.09;5009207;28;20057;-43
2022/06/01 05:08:14;;;;;;;4.75;3.60;;;14.30;56.80;;;14.48;49.29;97399.69;5008234;28;20064;-42
2022/06/01 05:10:42;;;;;;;2.67;2.33;;;14.30;56.30;;;14.55;49.10;97399.72;5008659;28;20057;-44
2022/06/01 05:13:12;;;;;;;4.05;2.75;;;14.40;56.30;;;14.62;49.15;97397.13;5008971;28;20111;-46
2022/06/01 05:15:51;;;;;;;6.10;2.88;;;14.50;56.30;;;14.65;48.97;97400.25;5009815;28;20058;-42
2022/06/01 05:18:21;;;;;;;3.38;2.50;;;14.50;56.50;;;14.72;48.86;97403.00;5007144;28;20048;-44
2022/06/01 05:20:49;;;;;;;3.38;2.70;;;14.60;55.80;;;14.77;48.60;97400.56;5007698;28;20064;-43
2022/06/01 05:23:17;;;;;;;2.80;2.22;;;14.60;55.60;;;14.82;48.43;97400.81;5008295;28;20072;-43
2022/06/01 05:25:48;;;;;;;3.67;2.50;;;14.70;55.10;;;14.88;48.27;97404.56;5007667;28;20053;-42
2022/06/01 05:28:25;;;;;;;2.83;2.50;;;14.70;54.90;;;14.90;48.26;97407.88;5008998;28;20054;-42
2022/06/01 05:31:13;;;;;;;3.67;2.75;;;14.80;54.90;;;14.95;48.15;97408.16;5008779;28;20052;-42
2022/06/01 05:33:43;;;;;;;2.88;2.20;;;14.80;55.60;;;14.99;48.12;97404.03;5009403;28;20704;-42
2022/06/01 05:36:16;;;;;;;3.58;2.60;;;14.90;55.00;;;15.06;48.19;97417.47;5008983;28;20283;-43
2022/06/01 05:38:46;;;;;;;4.88;2.50;;;14.90;54.80;;;15.10;47.94;97413.38;5010061;28;20066;-44
2022/06/01 05:41:14;;;;;;;3.78;2.35;;;15.00;54.40;;;15.07;48.22;97413.78;5007978;28;20046;-42
2022/06/01 05:43:42;;;;;;;3.00;2.67;;;15.00;54.60;;;15.10;48.06;97416.91;5007965;28;20056;-42
2022/06/01 05:46:10;;;;;;;3.38;2.45;;;15.00;54.60;;;15.13;48.39;97402.28;5008154;28;20050;-42
2022/06/01 05:48:38;;;;;;;5.03;2.90;;;15.00;55.00;;;15.12;48.50;97404.16;5008898;28;20066;-46
2022/06/01 05:51:06;;;;;;;3.78;2.80;;;15.00;55.20;;;15.13;48.68;97411.16;5007493;28;20049;-43
2022/06/01 05:53:34;;;;;;;3.10;2.78;;;15.00;55.40;;;15.17;48.74;97408.91;5008268;28;20238;-42
2022/06/01 05:56:02;;;;;;;3.42;2.55;;;15.00;55.60;;;15.20;48.87;97408.53;5009029;28;20248;-44
2022/06/01 05:58:32;;;;;;;4.22;2.60;;;15.00;55.60;;;15.24;48.74;97407.09;5007963;28;20050;-44
2022/06/01 06:01:05;;;;;;;3.10;2.40;;;15.10;55.70;;;15.26;48.98;97417.63;5007715;28;20320;-44
2022/06/01 06:03:34;;;;;;;3.78;2.92;;;15.10;55.90;;;15.30;49.04;97416.22;5009858;28;20426;-47
2022/06/01 06:06:12;;;;;;;2.97;2.67;;;15.20;56.00;;;15.33;49.14;97407.75;5007922;28;20052;-42
2022/06/01 06:08:49;;;;;;;3.90;2.75;;;15.20;56.10;;;15.38;49.16;97417.91;5007310;28;20271;-44
2022/06/01 06:11:28;;;;;;;3.33;2.50;;;15.20;56.10;;;15.42;49.12;97417.31;5007928;28;20054;-43
2022/06/01 06:13:58;;;;;;;3.17;2.53;;;15.30;56.40;;;15.49;49.23;97417.34;5007508;28;20053;-46
2022/06/01 06:16:30;;;;;;;3.10;2.60;;;15.40;56.10;;;15.54;49.29;97410.34;5007237;28;20057;-43
2022/06/01 06:18:58;;;;;;;3.03;2.53;;;15.50;56.20;;;15.59;49.31;97415.16;5007387;28;20064;-44
2022/06/01 06:21:29;;;;;;;3.67;2.88;;;15.50;56.40;;;15.64;49.73;97412.69;5007482;28;20054;-41
2022/06/01 06:24:03;;;;;;;3.78;2.83;;;15.60;56.70;;;15.69;49.85;97407.56;5008589;28;20054;-45
2022/06/01 06:26:31;;;;;;;4.80;3.08;;;15.60;56.60;;;15.75;49.59;97406.78;5008114;28;20236;-42
2022/06/01 06:29:03;;;;;;;3.58;3.28;;;15.80;56.50;;;15.82;50.04;97409.50;5007412;28;20060;-43
2022/06/01 06:31:31;;;;;;;9.48;3.25;;;15.80;56.90;;;15.90;50.01;97416.56;5008281;28;20352;-43
2022/06/01 06:33:59;;;;;;;3.75;2.72;;;15.90;57.10;;;15.96;50.05;97415.75;5007192;28;20340;-44
2022/06/01 06:36:27;;;;;;;6.03;3.40;;;16.00;57.10;;;16.02;49.76;97419.50;5007123;28;20056;-43
2022/06/01 06:38:55;;;;;;;4.80;2.95;;;16.10;56.90;;;16.07;49.61;97415.19;5008127;28;20368;-43
2022/06/01 06:41:23;;;;;;;3.60;2.90;;;16.10;56.40;;;16.12;49.72;97417.25;5007652;28;20068;-43
2022/06/01 06:43:52;;;;;;;6.18;3.17;;;16.20;56.30;;;16.19;49.72;97414.56;5006066;28;20053;-47
2022/06/01 06:46:23;;;;;;;3.97;2.53;;;16.20;56.30;;;16.25;49.40;97413.78;5006573;28;20332;-43
2022/06/01 06:48:51;;;;;;;3.25;2.90;;;16.30;55.90;;;16.30;49.44;97413.97;5007486;28;20068;-43
2022/06/01 06:51:21;;;;;;;3.30;2.35;;;16.40;55.50;;;16.37;49.16;97417.50;5004351;28;20065;-44
2022/06/01 06:53:49;;;;;;;5.93;2.50;;;16.50;55.80;;;16.45;49.36;97422.69;5006732;28;20057;-43
2022/06/01 06:56:21;;;;;;;8.93;2.88;;;16.50;55.60;;;16.50;49.18;97422.09;5005845;28;20050;-43
2022/06/01 06:58:49;;;;;;;5.60;2.75;;;16.60;55.60;;;16.54;50.45;97418.78;5008029;28;20064;-43
2022/06/01 07:01:18;;;;;;;6.03;3.10;;;16.60;57.70;;;16.58;50.57;97424.59;5007015;28;20482;-43
2022/06/01 07:03:46;;;;;;;5.45;3.22;;;16.70;57.80;;;16.61;50.68;97423.34;5006836;28;20054;-45
2022/06/01 07:06:22;;;;;;;3.38;2.67;;;16.70;57.90;;;16.64;50.77;97418.38;5005593;28;20054;-45
2022/06/01 07:08:53;;;;;;;3.90;2.90;;;16.70;58.60;;;16.63;51.24;97424.78;5007034;28;20049;-41
2022/06/01 07:11:25;;;;;;;5.05;3.22;;;16.70;58.60;;;16.62;51.09;97417.75;5006807;28;20247;-42
2022/06/01 07:13:56;;;;;;;4.10;3.50;;;16.70;58.40;;;16.63;51.22;97423.97;5007191;28;20120;-44
2022/06/01 07:16:28;;;;;;;4.05;3.05;;;16.70;58.40;;;16.69;51.46;97423.13;5005822;28;20368;-46
2022/06/01 07:19:01;;;;;;;7.38;3.63;;;16.70;58.90;;;16.72;51.34;97428.09;5006039;28;20165;-43
2022/06/01 07:21:30;;;;;;;5.57;3.72;;;16.80;58.80;;;16.76;51.29;97428.53;5007284;28;20461;-44
2022/06/01 07:24:00;;;;;;;5.07;3.08;;;16.80;58.60;;;16.76;51.24;97423.97;5006791;28;20053;-43
2022/06/01 07:26:36;;;;;;;3.63;2.90;;;16.80;58.50;;;16.82;51.13;97425.03;5007719;28;20064;-43
2022/06/01 07:29:05;;;;;;;3.25;2.90;;;16.90;58.30;;;16.88;51.31;97421.53;5005876;28;20058;-45
2022/06/01 07:31:33;;;;;;;3.90;2.70;;;17.00;58.30;;;16.90;50.83;97425.69;5005368;28;20062;-44
2022/06/01 07:34:03;;;;;;;3.53;3.05;;;17.00;57.80;;;16.93;50.46;97433.31;5007049;28;20049;-44
2022/06/01 07:36:32;;;;;;;3.97;2.75;;;17.00;57.20;;;17.00;50.19;97435.16;5006711;28;20406;-44
2022/06/01 07:44:58;;;;;;;3.20;2.90;;;17.20;57.00;;;17.09;50.06;97431.25;5006143;28;20041;-45
2022/06/01 07:47:26;;;;;;;4.38;2.80;;;17.20;56.40;;;17.17;49.78;97430.19;5007201;28;20352;-44
2022/06/01 07:50:13;;;;;;;4.90;2.92;;;17.30;56.20;;;17.21;49.75;97434.13;5006506;28;20245;-44
2022/06/01 07:53:04;;;;;;;6.28;2.42;;;17.40;55.80;;;17.27;49.66;97426.06;5005720;28;20050;-43
2022/06/01 07:55:33;;;;;;;3.42;2.65;;;17.40;55.90;;;17.30;48.80;97430.19;5007757;28;20046;-42
2022/06/01 07:58:01;;;;;;;4.25;2.60;;;17.50;53.70;;;17.36;48.31;97428.53;5006143;28;20068;-43
2022/06/01 08:00:30;;;;;;;3.50;2.50;;;17.50;54.10;;;17.44;48.73;97426.44;5024092;28;20038;-45
2022/06/01 08:02:58;;;;;;;4.43;2.67;;;17.60;54.70;;;17.48;48.08;97427.66;5032900;28;20057;-46
2022/06/01 08:05:27;;;;;;;4.18;3.03;;;17.70;53.60;;;17.53;48.06;97421.66;5035516;28;20063;-42
2022/06/01 08:07:55;;;;;;;4.03;3.05;;;17.80;53.50;;;17.61;47.89;97429.50;5034084;28;20045;-44
2022/06/01 08:10:23;;;;;;;6.72;4.32;;;17.80;53.10;;;17.62;48.36;97436.56;5035807;28;20240;-43
2022/06/01 08:13:09;;;;;;;5.85;4.55;;;17.90;53.80;;;17.64;47.83;97430.94;5033897;28;20059;-46
2022/06/01 08:15:43;;;;;;;5.70;4.55;;;17.80;53.20;;;17.57;47.67;97430.97;5030839;28;20063;-46
2022/06/01 08:18:18;;;;;;;4.78;4.13;;;17.70;53.30;;;17.52;47.89;97428.91;5035800;28;20049;-43
2022/06/01 08:20:47;;;;;;;6.88;4.40;;;17.60;53.70;;;17.52;47.77;97426.22;5042578;28;20363;-44
2022/06/01 08:23:26;;;;;;;7.30;4.07;;;17.60;53.60;;;17.49;47.27;97421.25;5045548;28;20075;-42
2022/06/01 08:25:55;;;;;;;6.45;4.43;;;17.60;52.40;;;17.55;47.44;97418.75;5046244;28;20275;-44
2022/06/01 08:28:26;;;;;;;5.40;3.83;;;17.60;53.20;;;17.57;47.00;97428.28;5045152;28;20403;-43
2022/06/01 08:30:54;;;;;;;4.57;2.88;;;17.80;52.40;;;17.64;47.03;97430.94;5047366;28;20067;-42
2022/06/01 08:33:23;;;;;;;4.85;3.83;;;17.80;52.40;;;17.67;46.76;97428.66;5045685;28;20051;-43
2022/06/01 08:35:52;;;;;;;4.93;2.95;;;17.90;51.90;;;17.76;46.75;97425.72;5045236;28;20049;-42
2022/06/01 08:38:20;;;;;;;4.85;2.83;;;18.00;51.90;;;17.80;46.75;97426.97;5045313;28;20251;-47
2022/06/01 08:41:11;;;;;;;6.20;4.13;;;18.00;51.50;;;17.85;46.35;97429.88;5043072;28;20063;-43
2022/06/01 08:43:55;;;;;;;6.93;2.83;;;18.20;51.90;;;17.93;45.79;97437.69;5044011;28;20057;-42
2022/06/01 08:46:26;;;;;;;4.07;3.03;;;18.20;50.50;;;18.01;46.14;97437.47;5048672;28;20059;-43
2022/06/01 08:49:00;;;;;;;4.43;2.78;;;18.30;50.80;;;18.09;45.78;97439.09;5049042;28;20055;-43
2022/06/01 08:51:30;;;;;;;5.40;2.63;;;18.40;50.50;;;18.19;45.46;97441.34;5048073;28;20262;-42
2022/06/01 08:54:00;;;;;;;3.58;2.50;;;18.50;50.30;;;18.25;44.85;97437.78;5047943;28;20060;-43
2022/06/01 08:56:36;;;;;;;4.18;2.40;;;18.60;49.10;;;18.35;44.74;97432.75;5049640;28;20049;-42
2022/06/01 08:59:45;;;;;;;3.72;2.17;;;18.70;48.30;;;18.44;44.56;97427.94;5048322;28;20048;-42
2022/06/01 09:02:34;;;;;;;4.32;2.30;;;18.80;48.40;;;18.40;42.71;97427.53;5049437;28;20061;-42
2022/06/01 09:05:20;;;;;;;4.32;2.08;;;18.80;45.80;;;18.50;43.40;97429.75;5049245;28;20155;-42
2022/06/01 09:08:42;;;;;;;3.08;2.50;;;18.80;47.10;;;18.49;43.10;97439.72;5036076;28;20057;-42
2022/06/01 09:11:43;;;;;;;4.53;2.30;;;18.90;45.70;;;18.53;41.86;97447.34;5037864;28;20052;-42
2022/06/01 09:14:20;;;;;;;3.53;2.38;;;19.00;45.10;;;18.59;40.23;97451.88;5034238;28;20054;-42
2022/06/01 09:16:52;;;;;;;2.45;2.00;;;19.00;42.10;;;18.68;40.45;97434.41;5039333;28;20124;-42
2022/06/01 09:22:40;;;;;;;4.47;2.30;;;19.20;43.50;;;18.70;40.51;97443.09;5037313;28;20217;-44
2022/06/01 09:25:10;;;;;;;3.63;2.05;;;19.30;42.80;;;18.82;39.54;97445.94;5037441;28;20053;-46
2022/06/01 09:27:40;;;;;;;2.83;1.85;;;19.40;42.20;;;18.76;39.25;97444.09;5036386;28;20079;-43
2022/06/01 09:30:26;;;;;;;3.10;2.13;;;19.30;41.70;;;18.79;39.85;97433.72;5037221;28;20108;-42
2022/06/01 09:33:02;;;;;;;3.08;1.95;;;19.30;42.40;;;18.93;41.15;97447.13;5039772;28;20051;-44
2022/06/01 09:35:44;;;;;;;4.43;2.10;;;19.40;44.10;;;18.93;41.77;97445.25;5035578;28;20061;-42
2022/06/01 09:38:41;;;;;;;2.90;1.65;;;19.50;45.00;;;19.01;36.69;97438.75;5035408;28;20060;-45
2022/06/01 09:41:21;;;;;;;3.97;1.70;;;19.60;38.60;;;19.08;34.78;97437.66;5030401;28;20049;-43
2022/06/01 09:44:04;;;;;;;3.30;1.75;;;19.60;35.80;;;19.15;35.36;97442.97;5023862;28;20054;-44
2022/06/01 09:46:55;;;;;;;2.60;2.00;;;19.70;36.60;;;19.32;36.10;97450.53;5024377;28;20049;-43
2022/06/01 09:49:29;;;;;;;2.20;2.00;;;20.00;37.50;;;19.32;35.21;97455.94;5023870;28;20052;-43
2022/06/01 09:52:08;;;;;;;5.88;2.10;;;20.00;35.60;;;19.38;34.64;97445.06;5019997;28;20049;-44
2022/06/01 09:54:43;;;;;;;3.55;1.60;;;20.00;36.30;;;19.40;35.44;97442.97;5020409;28;20064;-43
2022/06/01 09:57:27;;;;;;;1.98;1.60;;;20.00;36.30;;;19.53;35.44;97444.72;5014775;28;20058;-43
2022/06/01 10:08:35;;;;;;;3.25;1.95;;;20.40;35.20;;;19.79;34.81;97440.09;5007589;28;20057;-41
2022/06/01 10:11:21;;;;;;;1.88;1.75;;;20.30;36.30;;;19.82;35.40;97432.38;5006457;28;20340;-42
2022/06/01 10:14:01;;;;;;;3.22;1.67;;;20.50;36.80;;;19.91;31.93;97443.72;5006784;28;20221;-43
2022/06/01 10:16:40;;;;;;;2.63;2.42;;;20.60;33.10;;;19.92;31.91;97445.34;5007426;28;20058;-41
2022/06/01 10:19:14;;;;;;;2.53;2.33;;;20.60;34.10;;;19.96;33.11;97430.34;5007640;28;20061;-41
2022/06/01 10:22:10;;;;;;;2.30;2.10;;;20.50;33.90;;;20.00;33.11;97439.63;5005670;28;20053;-41
2022/06/01 10:25:18;;;;;;;2.00;1.80;;;20.60;34.20;;;20.05;32.84;97447.09;5008549;28;20050;-41
2022/06/01 10:28:02;;;;;;;5.22;2.00;;;20.70;34.20;;;20.21;32.92;97446.44;5006857;28;20336;-41
2022/06/01 10:31:00;;;;;;;2.17;1.58;;;20.80;34.30;;;20.33;32.57;97440.28;5005889;28;20263;-41
2022/06/01 10:33:47;;;;;;;5.13;1.90;;;20.90;33.60;;;20.25;32.03;97446.81;5006190;28;20049;-44
2022/06/01 10:36:53;;;;;;;2.08;1.98;;;21.00;32.50;;;20.39;31.75;97445.59;5005891;28;20723;-42
2022/06/01 10:39:47;;;;;;;3.13;1.85;;;21.10;32.00;;;20.37;31.63;97436.88;5006947;28;20356;-41
2022/06/01 10:45:54;;;;;;;1.40;1.30;;;21.10;30.00;;;20.57;29.26;97435.78;5044547;28;20052;-44
2022/06/01 10:48:31;;;;;;;2.10;1.60;;;21.10;30.60;;;20.59;31.01;97441.81;5008665;28;20050;-41
2022/06/01 10:51:19;;;;;;;2.22;1.77;;;21.10;31.60;;;20.71;31.38;97437.28;5007157;28;20053;-41
2022/06/01 10:54:11;;;;;;;1.90;1.80;;;21.40;31.60;;;20.77;31.10;97449.06;5006713;28;20056;-42
2022/06/01 10:56:39;;;;;;;3.33;1.52;;;21.40;31.50;;;20.76;30.71;97448.22;5004758;28;20049;-42
2022/06/01 10:59:14;;;;;;;4.18;2.30;;;21.30;30.80;;;20.60;30.50;97455.09;5006974;28;20057;-42
2022/06/01 11:02:32;;;;;;;3.17;1.73;;;21.20;31.30;;;20.79;30.02;97455.06;5006280;28;20065;-42
2022/06/01 11:05:23;;;;;;;3.72;2.22;;;21.30;31.70;;;20.81;31.13;97445.63;5012803;28;20062;-44
2022/06/01 11:08:22;;;;;;;2.70;1.88;;;21.40;31.60;;;20.88;31.62;97444.72;5005884;28;20058;-41
2022/06/01 11:11:09;;;;;;;2.78;2.28;;;21.50;33.00;;;20.82;30.06;97432.94;5007057;28;20049;-42
2022/06/01 11:14:24;;;;;;;1.92;1.65;;;21.50;31.10;;;20.92;30.69;97437.78;5018232;28;20046;-41
2022/06/01 11:17:01;;;;;;;;;;;21.60;32.00;;;20.97;30.47;97441.44;5022021;28;20065;-43
2022/06/01 11:20:34;;;;;;;3.92;1.85;;;21.60;30.90;;;20.89;29.35;97433.66;5006940;28;20122;-42
2022/06/01 11:23:31;;;;;;;4.60;1.92;;;21.50;30.30;;;20.92;29.90;97443.19;5006352;28;20061;-42